Time;durP1;ratioP1;P1;durP2;ratioP2;P2;SDS_P1;SDS_P2;PMS_P1;PMS_P2;Temp;Humidity;BMP_temperature;BMP_pressure;BME280_temperature;BME280_humidity;BME280_pressure;Samples;Min_cycle;Max_cycle;Signal;HPM_P1;HPM_P2
2021/12/17 00:02:06;;;;;;;34.38;17.15;;;6.60;99.90;;;;;;489919;243;28062;-75
2021/12/17 00:03:37;;;;;;;35.78;18.73;;;6.60;99.90;;;;;;488354;243;27542;-75
2021/12/17 00:05:46;;;;;;;34.45;18.45;;;6.60;99.90;;;;;;489690;243;27502;-75
2021/12/17 00:07:44;;;;;;;32.50;18.83;;;6.50;99.90;;;;;;489659;243;27968;-75
2021/12/17 00:09:45;;;;;;;33.72;20.15;;;6.50;99.90;;;;;;489943;243;28068;-75
2021/12/17 00:11:46;;;;;;;38.40;20.08;;;6.50;99.90;;;;;;489936;243;27578;-75
2021/12/17 00:13:48;;;;;;;32.95;19.20;;;6.40;99.90;;;;;;489926;242;27516;-76
2021/12/17 00:15:49;;;;;;;35.92;20.08;;;6.50;99.90;;;;;;489910;243;27614;-75
2021/12/17 00:17:57;;;;;;;32.78;19.37;;;6.50;99.90;;;;;;489908;243;27503;-75
2021/12/17 00:20:26;;;;;;;36.22;18.65;;;6.50;99.90;;;;;;489394;243;28082;-76
2021/12/17 00:50:01;;;;;;;15.60;10.07;;;6.60;99.90;;;;;;489884;243;28006;-76
2021/12/17 00:52:01;;;;;;;13.88;9.95;;;6.60;99.90;;;;;;488786;243;28095;-75
2021/12/17 00:54:02;;;;;;;11.77;8.15;;;6.60;99.90;;;;;;489833;243;27937;-75
2021/12/17 00:56:02;;;;;;;12.00;8.27;;;6.60;99.90;;;;;;489891;243;28098;-76
2021/12/17 00:58:04;;;;;;;14.13;8.07;;;6.70;99.90;;;;;;489907;243;27464;-75
2021/12/17 01:00:05;;;;;;;11.98;8.10;;;6.70;99.90;;;;;;489936;243;27472;-75
2021/12/17 01:02:06;;;;;;;15.50;8.20;;;6.70;99.90;;;;;;489916;241;27620;-75
2021/12/17 01:04:07;;;;;;;10.27;7.12;;;6.70;99.90;;;;;;489934;243;27481;-75
2021/12/17 01:06:09;;;;;;;11.60;8.20;;;6.70;99.90;;;;;;489914;243;27547;-76
2021/12/17 01:08:10;;;;;;;9.20;7.55;;;6.70;99.90;;;;;;489889;243;27967;-76
2021/12/17 01:10:11;;;;;;;11.52;7.22;;;6.70;99.90;;;;;;489924;243;27921;-75
2021/12/17 01:12:12;;;;;;;11.80;7.50;;;6.70;99.90;;;;;;489915;243;27525;-75
2021/12/17 01:14:14;;;;;;;8.30;6.30;;;6.70;99.90;;;;;;489947;243;27490;-76
2021/12/17 01:16:15;;;;;;;9.57;6.22;;;6.70;99.90;;;;;;489892;243;27642;-75
2021/12/17 01:18:19;;;;;;;8.20;6.10;;;6.70;99.90;;;;;;489924;243;27864;-75
2021/12/17 01:22:45;;;;;;;9.05;5.30;;;6.70;99.90;;;;;;489893;243;27485;-75
2021/12/17 01:24:48;;;;;;;6.97;5.45;;;6.80;99.90;;;;;;488425;243;27556;-75
2021/12/17 01:36:00;;;;;;;7.55;5.47;;;6.70;99.90;;;;;;489920;243;27574;-75
2021/12/17 01:39:01;;;;;;;8.63;5.43;;;6.80;99.90;;;;;;489917;243;27570;-75
2021/12/17 01:42:07;;;;;;;7.90;5.90;;;6.70;99.90;;;;;;489941;243;27530;-76
2021/12/17 01:44:08;;;;;;;8.07;6.25;;;6.70;99.90;;;;;;489958;243;27492;-75
2021/12/17 01:46:10;;;;;;;6.97;5.85;;;6.70;99.90;;;;;;489920;243;27520;-76
2021/12/17 01:48:13;;;;;;;5.78;4.85;;;6.70;99.90;;;;;;489928;243;27552;-75
2021/12/17 01:59:33;;;;;;;12.07;7.22;;;6.70;99.90;;;;;;489955;243;27548;-75
2021/12/17 02:01:27;;;;;;;8.25;6.62;;;6.70;99.90;;;;;;489393;243;27925;-76
2021/12/17 02:03:27;;;;;;;8.30;6.70;;;6.70;99.90;;;;;;489925;243;27963;-76
2021/12/17 02:05:29;;;;;;;9.43;6.75;;;6.70;99.90;;;;;;489924;243;27575;-74
2021/12/17 02:07:30;;;;;;;7.95;6.97;;;6.70;99.90;;;;;;489908;243;27567;-76
2021/12/17 02:32:00;;;;;;;14.48;10.75;;;6.60;99.90;;;;;;488999;243;27424;-75
2021/12/17 02:33:59;;;;;;;14.73;11.43;;;6.60;99.90;;;;;;488785;243;27406;-75
2021/12/17 02:36:00;;;;;;;14.05;11.00;;;6.60;99.90;;;;;;488900;243;27936;-75
2021/12/17 02:38:01;;;;;;;13.95;10.70;;;6.60;99.90;;;;;;488950;243;27505;-75
2021/12/17 02:42:20;;;;;;;15.52;11.20;;;6.60;99.90;;;;;;488998;243;27389;-75
2021/12/17 02:46:48;;;;;;;13.30;9.90;;;6.60;99.90;;;;;;489004;243;27844;-75
2021/12/17 02:48:49;;;;;;;19.92;13.45;;;6.60;99.90;;;;;;488999;243;27890;-75
2021/12/17 02:50:50;;;;;;;18.35;12.15;;;6.60;99.90;;;;;;489005;243;27513;-75
2021/12/17 02:52:51;;;;;;;19.70;13.95;;;6.60;99.90;;;;;;489026;243;27476;-75
2021/12/17 02:54:53;;;;;;;17.77;12.95;;;6.60;99.90;;;;;;489004;243;27429;-75
2021/12/17 02:56:54;;;;;;;18.77;13.62;;;6.50;99.90;;;;;;489009;243;27413;-75
2021/12/17 02:58:55;;;;;;;17.85;11.95;;;6.50;99.90;;;;;;489018;243;27877;-75
2021/12/17 03:00:56;;;;;;;19.62;12.90;;;6.60;99.90;;;;;;489009;243;27881;-76
2021/12/17 03:02:58;;;;;;;16.58;12.27;;;6.60;99.90;;;;;;488986;243;27474;-76
2021/12/17 03:04:59;;;;;;;16.73;12.88;;;6.60;99.90;;;;;;489005;243;27418;-75
2021/12/17 03:07:00;;;;;;;17.05;12.15;;;6.60;99.90;;;;;;488997;243;27429;-75
2021/12/17 03:09:02;;;;;;;17.60;11.82;;;6.60;99.90;;;;;;489024;243;27457;-74
2021/12/17 03:11:03;;;;;;;15.82;11.52;;;6.60;99.90;;;;;;488873;243;27924;-75
2021/12/17 03:13:05;;;;;;;19.85;13.50;;;6.60;99.90;;;;;;488996;243;27370;-76
2021/12/17 03:15:16;;;;;;;15.65;11.75;;;6.60;99.90;;;;;;488985;243;27501;-75
2021/12/17 03:17:10;;;;;;;19.65;13.45;;;6.60;99.90;;;;;;488321;243;27823;-76
2021/12/17 03:19:26;;;;;;;19.20;14.00;;;6.60;99.90;;;;;;488778;243;27409;-75
2021/12/17 03:23:41;;;;;;;21.83;15.43;;;6.60;99.90;;;;;;489010;243;27525;-76
2021/12/17 03:25:42;;;;;;;19.75;14.10;;;6.50;99.90;;;;;;488984;243;27434;-75
2021/12/17 03:27:43;;;;;;;21.37;14.40;;;6.50;99.90;;;;;;489001;243;27862;-75
2021/12/17 03:29:44;;;;;;;22.77;15.80;;;6.50;99.90;;;;;;489023;243;27493;-75
2021/12/17 03:31:46;;;;;;;19.70;14.60;;;6.50;99.90;;;;;;488988;243;27956;-75
2021/12/17 03:33:48;;;;;;;22.35;15.18;;;6.50;99.90;;;;;;489029;243;27920;-75
2021/12/17 03:35:48;;;;;;;19.40;13.75;;;6.40;99.90;;;;;;488974;243;27563;-75
2021/12/17 03:37:49;;;;;;;21.20;14.30;;;6.40;99.90;;;;;;489036;243;27434;-75
2021/12/17 03:39:50;;;;;;;18.65;13.15;;;6.40;99.90;;;;;;489033;243;27513;-75
2021/12/17 03:41:52;;;;;;;16.42;12.93;;;6.40;99.90;;;;;;489028;243;27425;-75
2021/12/17 03:43:54;;;;;;;17.15;12.00;;;6.40;99.90;;;;;;489050;243;27866;-74
2021/12/17 03:45:54;;;;;;;18.08;12.75;;;6.40;99.90;;;;;;489008;243;27410;-76
2021/12/17 03:47:56;;;;;;;15.48;12.18;;;6.40;99.90;;;;;;489030;243;27414;-75
2021/12/17 03:49:58;;;;;;;17.37;13.07;;;6.40;99.90;;;;;;489030;243;27371;-75
2021/12/17 03:52:05;;;;;;;17.80;13.30;;;6.40;99.90;;;;;;488970;243;27421;-75
2021/12/17 03:54:05;;;;;;;18.02;13.30;;;6.40;99.90;;;;;;489018;243;27449;-75
2021/12/17 03:56:07;;;;;;;18.77;13.10;;;6.40;99.90;;;;;;489046;243;27491;-75
2021/12/17 03:58:08;;;;;;;17.40;13.10;;;6.40;99.90;;;;;;489025;243;27436;-76
2021/12/17 04:00:09;;;;;;;17.70;12.95;;;6.40;99.90;;;;;;489046;243;27843;-75
2021/12/17 04:02:10;;;;;;;20.20;13.10;;;6.40;99.90;;;;;;489031;243;27414;-76
2021/12/17 04:04:12;;;;;;;16.15;11.65;;;6.40;99.90;;;;;;489038;243;27473;-75
2021/12/17 04:06:13;;;;;;;20.42;13.80;;;6.40;99.90;;;;;;489062;243;27386;-76
2021/12/17 04:08:14;;;;;;;16.20;12.27;;;6.40;99.90;;;;;;489054;243;27422;-76
2021/12/17 04:10:17;;;;;;;16.23;11.93;;;6.40;99.90;;;;;;489056;243;27839;-75
2021/12/17 04:12:20;;;;;;;16.48;11.90;;;6.40;99.90;;;;;;488919;243;27899;-74
2021/12/17 04:14:19;;;;;;;13.75;11.07;;;6.40;99.90;;;;;;488831;243;27427;-75
2021/12/17 04:16:23;;;;;;;15.57;11.90;;;6.40;99.90;;;;;;488971;243;27376;-75
2021/12/17 04:18:21;;;;;;;13.62;10.57;;;6.40;99.90;;;;;;488790;243;27430;-76
2021/12/17 04:20:22;;;;;;;13.30;10.82;;;6.40;99.90;;;;;;489014;243;27457;-75
2021/12/17 04:22:23;;;;;;;17.67;11.70;;;6.40;99.90;;;;;;489012;243;27944;-75
2021/12/17 04:24:24;;;;;;;12.25;10.65;;;6.40;99.90;;;;;;489041;243;27517;-75
2021/12/17 04:26:26;;;;;;;15.30;10.13;;;6.40;99.90;;;;;;489045;243;27393;-75
2021/12/17 04:28:27;;;;;;;13.40;10.70;;;6.40;99.90;;;;;;489048;243;27450;-75
2021/12/17 04:30:29;;;;;;;13.43;10.35;;;6.40;99.90;;;;;;489007;243;27394;-75
2021/12/17 04:32:29;;;;;;;13.20;10.20;;;6.40;99.90;;;;;;489014;243;27898;-75
2021/12/17 04:34:31;;;;;;;12.25;10.32;;;6.40;99.90;;;;;;489017;243;28029;-76
2021/12/17 04:36:35;;;;;;;12.90;9.80;;;6.40;99.90;;;;;;489014;243;27378;-75
2021/12/17 04:38:33;;;;;;;13.57;10.02;;;6.40;99.90;;;;;;488841;243;27433;-75
2021/12/17 04:40:36;;;;;;;10.93;9.50;;;6.40;99.90;;;;;;489035;243;27382;-75
2021/12/17 04:42:58;;;;;;;12.88;10.75;;;6.40;99.90;;;;;;488962;243;27410;-75
2021/12/17 04:44:56;;;;;;;14.10;10.77;;;6.40;99.90;;;;;;488058;243;27473;-75
2021/12/17 04:58:21;;;;;;;10.57;9.20;;;6.30;99.90;;;;;;488975;243;27529;-75
2021/12/17 05:00:24;;;;;;;12.73;10.18;;;6.30;99.90;;;;;;489008;243;27529;-75
2021/12/17 05:02:24;;;;;;;12.23;9.15;;;6.30;99.90;;;;;;488981;243;27984;-76
2021/12/17 05:04:26;;;;;;;11.02;9.05;;;6.30;99.90;;;;;;489034;243;27430;-76
2021/12/17 05:06:29;;;;;;;12.35;9.90;;;6.30;99.90;;;;;;488969;243;27387;-75
2021/12/17 05:08:29;;;;;;;10.90;9.18;;;6.30;99.90;;;;;;488856;243;27421;-75
2021/12/17 05:19:45;;;;;;;12.30;9.40;;;6.20;99.90;;;;;;489008;243;27430;-75
2021/12/17 05:21:39;;;;;;;11.30;8.85;;;6.30;99.90;;;;;;488508;243;27379;-76
2021/12/17 05:23:43;;;;;;;9.50;8.50;;;6.30;99.90;;;;;;488994;243;27965;-75
2021/12/17 05:25:42;;;;;;;12.65;9.82;;;6.30;99.90;;;;;;488899;243;28091;-75
2021/12/17 05:27:43;;;;;;;9.55;8.55;;;6.30;99.90;;;;;;489017;243;27386;-75
2021/12/17 05:29:44;;;;;;;9.02;7.45;;;6.30;99.90;;;;;;489033;243;27553;-75
2021/12/17 05:31:45;;;;;;;8.60;7.40;;;6.20;99.90;;;;;;488997;243;27389;-75
2021/12/17 05:33:47;;;;;;;8.00;7.15;;;6.20;99.90;;;;;;488973;243;27529;-75
2021/12/17 05:35:48;;;;;;;7.65;6.85;;;6.20;99.90;;;;;;488758;243;27543;-74
2021/12/17 05:37:49;;;;;;;7.65;6.75;;;6.20;99.90;;;;;;488940;243;27855;-75
2021/12/17 05:39:50;;;;;;;7.43;6.53;;;6.20;99.90;;;;;;488936;243;28023;-75
2021/12/17 05:41:52;;;;;;;7.85;6.60;;;6.20;99.90;;;;;;488950;243;27446;-75
2021/12/17 05:43:56;;;;;;;7.82;7.05;;;6.20;99.90;;;;;;488969;243;27422;-75
2021/12/17 05:47:58;;;;;;;9.10;7.30;;;6.20;99.90;;;;;;489023;243;27910;-75
2021/12/17 05:49:59;;;;;;;8.60;7.25;;;6.20;99.90;;;;;;489020;243;27917;-75
2021/12/17 05:52:01;;;;;;;9.68;7.43;;;6.20;99.90;;;;;;488991;243;27454;-75
2021/12/17 05:54:02;;;;;;;9.32;6.93;;;6.20;99.90;;;;;;489046;243;27398;-75
2021/12/17 05:56:03;;;;;;;7.50;6.80;;;6.10;99.90;;;;;;489004;243;27493;-76
2021/12/17 05:58:04;;;;;;;8.60;6.93;;;6.00;99.90;;;;;;489007;243;27770;-75
2021/12/17 06:00:06;;;;;;;8.57;6.95;;;6.00;99.90;;;;;;489014;243;27381;-76
2021/12/17 06:02:11;;;;;;;6.60;6.05;;;6.00;99.90;;;;;;488998;243;27438;-76
2021/12/17 06:04:08;;;;;;;8.00;7.20;;;6.10;99.90;;;;;;488764;243;27841;-75
2021/12/17 06:06:09;;;;;;;7.75;6.00;;;6.00;99.90;;;;;;489034;243;27985;-75
2021/12/17 06:08:11;;;;;;;7.32;6.62;;;6.00;99.90;;;;;;489060;243;27901;-76
2021/12/17 06:10:12;;;;;;;7.90;7.10;;;6.00;99.90;;;;;;489027;243;27371;-75
2021/12/17 06:12:13;;;;;;;11.45;6.62;;;6.00;99.90;;;;;;488997;243;27417;-75
2021/12/17 06:14:14;;;;;;;6.55;5.95;;;5.90;99.90;;;;;;489004;243;27465;-75
2021/12/17 06:16:16;;;;;;;6.60;5.90;;;5.90;99.90;;;;;;489067;243;27472;-75
2021/12/17 06:18:17;;;;;;;7.10;6.40;;;5.90;99.90;;;;;;489027;243;27426;-76
2021/12/17 06:20:19;;;;;;;6.90;5.97;;;5.90;99.90;;;;;;489042;243;27371;-75
2021/12/17 06:22:19;;;;;;;6.40;5.80;;;5.90;99.90;;;;;;488980;243;27960;-76
2021/12/17 06:24:21;;;;;;;6.68;5.97;;;5.90;99.90;;;;;;489014;243;28599;-75
2021/12/17 06:26:22;;;;;;;8.15;6.40;;;5.90;99.90;;;;;;488994;243;27448;-75
2021/12/17 06:28:23;;;;;;;7.65;6.57;;;5.90;99.90;;;;;;488993;243;27478;-75
2021/12/17 06:30:24;;;;;;;8.27;7.05;;;5.90;99.90;;;;;;488991;243;27394;-76
2021/12/17 06:32:26;;;;;;;8.15;6.78;;;5.90;99.90;;;;;;488984;243;27445;-75
2021/12/17 06:34:27;;;;;;;7.28;6.53;;;5.90;99.90;;;;;;489031;243;27437;-76
2021/12/17 06:36:28;;;;;;;8.85;7.45;;;5.90;99.90;;;;;;489011;243;27414;-75
2021/12/17 06:38:29;;;;;;;7.12;6.43;;;5.90;99.90;;;;;;488990;243;28011;-75
2021/12/17 06:40:31;;;;;;;6.95;6.20;;;5.90;99.90;;;;;;489003;243;27903;-75
2021/12/17 06:42:32;;;;;;;6.70;6.10;;;5.90;99.90;;;;;;488980;243;27925;-76
2021/12/17 06:44:33;;;;;;;8.50;6.72;;;5.90;99.90;;;;;;489040;243;27512;-75
2021/12/17 06:46:37;;;;;;;7.53;6.72;;;5.90;99.90;;;;;;489024;243;27386;-75
2021/12/17 06:48:36;;;;;;;7.40;6.55;;;5.90;99.90;;;;;;488860;243;27427;-75
2021/12/17 07:10:50;;;;;;;8.18;6.85;;;5.90;99.90;;;;;;489045;243;27433;-75
2021/12/17 07:17:34;;;;;;;7.70;7.00;;;5.80;99.90;;;;;;488982;243;27374;-75
2021/12/17 07:22:14;;;;;;;7.87;7.07;;;5.80;99.90;;;;;;488981;243;27440;-75
2021/12/17 07:39:23;;;;;;;8.43;6.87;;;5.70;99.90;;;;;;489026;243;27413;-75
2021/12/17 07:41:24;;;;;;;7.22;6.15;;;5.70;99.90;;;;;;489024;243;27382;-75
2021/12/17 07:43:28;;;;;;;8.57;6.82;;;5.70;99.90;;;;;;489009;243;27420;-75
2021/12/17 07:45:26;;;;;;;7.80;6.05;;;5.70;99.90;;;;;;488832;243;27399;-76
2021/12/17 07:47:28;;;;;;;8.43;7.00;;;5.70;99.90;;;;;;489032;243;27893;-75
2021/12/17 07:49:29;;;;;;;9.05;6.70;;;5.70;99.90;;;;;;489016;243;27982;-75
2021/12/17 07:51:30;;;;;;;9.15;7.07;;;5.70;99.90;;;;;;489029;243;27849;-75
2021/12/17 07:53:31;;;;;;;10.50;7.50;;;5.70;99.90;;;;;;489043;243;27425;-75
2021/12/17 07:55:33;;;;;;;8.30;7.25;;;5.70;99.90;;;;;;489009;243;27457;-76
2021/12/17 07:57:34;;;;;;;9.85;7.82;;;5.60;99.90;;;;;;489048;243;27426;-75
2021/12/17 07:59:35;;;;;;;9.77;8.27;;;5.60;99.90;;;;;;489018;243;27434;-75
2021/12/17 08:01:36;;;;;;;10.38;7.37;;;5.60;99.90;;;;;;489043;243;27410;-75
2021/12/17 08:03:38;;;;;;;10.13;8.05;;;5.70;99.90;;;;;;489050;243;27422;-76
2021/12/17 08:05:39;;;;;;;8.60;7.43;;;5.70;99.90;;;;;;489034;243;27852;-75
2021/12/17 08:07:40;;;;;;;10.05;7.78;;;5.70;99.90;;;;;;489055;243;28038;-75
2021/12/17 08:09:43;;;;;;;11.00;8.50;;;5.70;99.90;;;;;;489023;243;28092;-75
2021/12/17 08:11:43;;;;;;;10.77;8.68;;;5.70;99.90;;;;;;488928;243;27387;-75
2021/12/17 08:13:46;;;;;;;11.27;7.82;;;5.80;99.90;;;;;;489028;243;27505;-75
2021/12/17 08:24:55;;;;;;;9.52;7.53;;;5.80;99.90;;;;;;488978;243;28007;-75
2021/12/17 08:27:10;;;;;;;9.57;7.75;;;5.90;99.90;;;;;;488527;243;27485;-75
2021/12/17 08:29:23;;;;;;;12.25;9.60;;;5.90;99.90;;;;;;488002;243;27422;-75
2021/12/17 08:30:58;;;;;;;10.02;7.65;;;5.80;99.90;;;;;;487549;243;27460;-75
2021/12/17 08:32:59;;;;;;;9.05;7.43;;;5.80;99.90;;;;;;489033;243;27473;-75
2021/12/17 08:35:00;;;;;;;10.15;7.97;;;5.80;99.90;;;;;;489027;243;27537;-76
2021/12/17 08:37:01;;;;;;;10.40;8.52;;;5.80;99.90;;;;;;489026;243;27432;-75
2021/12/17 08:39:03;;;;;;;9.48;7.43;;;5.80;99.90;;;;;;488993;243;27505;-75
2021/12/17 08:41:05;;;;;;;11.38;8.57;;;5.80;99.90;;;;;;489006;243;28640;-75
2021/12/17 08:43:05;;;;;;;9.27;7.68;;;5.80;99.90;;;;;;489013;243;27908;-76
2021/12/17 08:45:10;;;;;;;10.25;8.63;;;5.80;99.90;;;;;;489009;243;27508;-75
2021/12/17 08:47:10;;;;;;;12.25;8.82;;;5.80;99.90;;;;;;488841;243;27430;-75
2021/12/17 08:49:09;;;;;;;10.93;8.50;;;5.80;99.90;;;;;;488873;243;27414;-76
2021/12/17 08:51:10;;;;;;;9.70;8.50;;;5.80;99.90;;;;;;489004;243;27799;-75
2021/12/17 08:53:11;;;;;;;12.25;9.05;;;5.70;99.90;;;;;;489004;243;27438;-76
2021/12/17 08:55:13;;;;;;;12.63;9.25;;;5.70;99.90;;;;;;489017;243;27528;-76
2021/12/17 08:57:14;;;;;;;12.60;9.18;;;5.70;99.90;;;;;;489013;243;27864;-75
2021/12/17 08:59:16;;;;;;;9.75;8.50;;;5.70;99.90;;;;;;488898;243;27542;-75
2021/12/17 09:01:16;;;;;;;10.63;7.60;;;5.70;99.90;;;;;;488958;243;27421;-76
2021/12/17 09:03:18;;;;;;;8.73;7.00;;;5.80;99.90;;;;;;489022;243;27385;-75
2021/12/17 09:05:20;;;;;;;11.73;8.27;;;5.80;99.90;;;;;;488985;243;27512;-75
2021/12/17 09:07:20;;;;;;;10.85;8.65;;;5.80;99.90;;;;;;489022;243;27509;-75
2021/12/17 09:09:22;;;;;;;10.85;8.30;;;5.80;99.90;;;;;;488987;243;27925;-75
2021/12/17 09:11:23;;;;;;;10.90;8.38;;;5.80;99.90;;;;;;488993;243;27900;-75
2021/12/17 09:13:27;;;;;;;10.20;8.60;;;5.80;99.90;;;;;;489010;243;27395;-75
2021/12/17 09:15:28;;;;;;;10.82;8.35;;;5.80;99.90;;;;;;489006;243;27379;-75
2021/12/17 09:17:30;;;;;;;11.73;9.10;;;5.80;99.90;;;;;;489029;243;27460;-75
2021/12/17 09:19:32;;;;;;;10.45;8.07;;;5.70;99.90;;;;;;489027;243;27429;-75
2021/12/17 09:21:32;;;;;;;11.40;8.68;;;5.70;99.90;;;;;;488957;243;27939;-76
2021/12/17 09:23:34;;;;;;;11.45;8.23;;;5.70;99.90;;;;;;489008;243;27493;-75
2021/12/17 09:25:35;;;;;;;8.90;7.25;;;5.80;99.90;;;;;;489009;243;27453;-76
2021/12/17 09:27:36;;;;;;;10.52;7.93;;;5.80;99.90;;;;;;489000;243;27426;-75
2021/12/17 09:29:37;;;;;;;10.68;8.45;;;5.80;99.90;;;;;;489010;242;27750;-76
2021/12/17 09:31:38;;;;;;;10.80;8.40;;;5.80;99.90;;;;;;489018;243;27406;-75
2021/12/17 09:33:40;;;;;;;10.85;8.55;;;5.90;99.90;;;;;;489036;243;27426;-75
2021/12/17 09:35:41;;;;;;;10.00;8.23;;;5.90;99.90;;;;;;489003;243;27853;-75
2021/12/17 09:37:42;;;;;;;11.00;8.65;;;6.00;99.90;;;;;;488996;243;27989;-75
2021/12/17 09:39:43;;;;;;;9.15;7.65;;;6.10;99.90;;;;;;489040;243;27517;-76
2021/12/17 09:41:50;;;;;;;9.73;7.72;;;6.20;99.90;;;;;;489043;243;27393;-75
2021/12/17 09:43:46;;;;;;;10.00;8.57;;;6.20;99.90;;;;;;488676;243;27422;-76
2021/12/17 09:45:47;;;;;;;10.40;8.88;;;6.30;99.90;;;;;;489041;243;27395;-75
2021/12/17 09:47:48;;;;;;;12.30;9.27;;;6.20;99.90;;;;;;489012;243;27425;-76
2021/12/17 09:49:51;;;;;;;12.48;9.80;;;6.10;99.90;;;;;;489054;243;28579;-75
2021/12/17 09:51:52;;;;;;;14.13;10.35;;;6.10;99.90;;;;;;489019;243;27626;-75
2021/12/17 09:53:54;;;;;;;11.45;9.45;;;6.10;99.90;;;;;;489037;243;27474;-76
2021/12/17 09:55:56;;;;;;;11.40;9.45;;;6.00;99.90;;;;;;489044;243;27385;-76
2021/12/17 09:57:56;;;;;;;13.13;10.05;;;6.00;99.90;;;;;;489021;243;27509;-75
2021/12/17 09:59:57;;;;;;;12.25;9.63;;;6.10;99.90;;;;;;489006;243;27386;-75
2021/12/17 10:01:59;;;;;;;12.77;10.05;;;6.10;99.90;;;;;;488987;243;28090;-75
2021/12/17 10:04:00;;;;;;;12.18;9.60;;;6.10;99.90;;;;;;489001;243;27664;-76
2021/12/17 10:06:01;;;;;;;13.75;9.95;;;6.20;99.90;;;;;;489034;243;27382;-76
2021/12/17 10:08:02;;;;;;;11.30;9.13;;;6.20;99.90;;;;;;489005;243;27450;-75
2021/12/17 10:10:04;;;;;;;10.25;8.38;;;6.30;99.90;;;;;;489014;243;27398;-76
2021/12/17 10:12:05;;;;;;;10.50;8.38;;;6.30;99.90;;;;;;489002;243;27525;-75
2021/12/17 10:14:06;;;;;;;10.85;8.70;;;6.30;99.90;;;;;;489021;243;27974;-75
2021/12/17 10:16:07;;;;;;;9.70;7.97;;;6.20;99.90;;;;;;489046;243;27996;-75
2021/12/17 10:18:09;;;;;;;10.05;7.80;;;6.30;99.90;;;;;;489023;243;27444;-75
2021/12/17 10:20:10;;;;;;;7.93;7.12;;;6.30;99.90;;;;;;488985;243;27532;-76
2021/12/17 10:22:11;;;;;;;9.27;7.30;;;6.50;99.90;;;;;;489004;243;27556;-75
2021/12/17 10:24:12;;;;;;;7.55;6.10;;;6.40;99.90;;;;;;489033;243;27826;-76
2021/12/17 10:26:14;;;;;;;7.35;6.18;;;6.40;99.90;;;;;;489025;243;27387;-75
2021/12/17 10:28:15;;;;;;;6.78;6.07;;;6.40;99.90;;;;;;489024;243;27913;-76
2021/12/17 10:30:16;;;;;;;7.65;6.25;;;6.50;99.90;;;;;;489005;243;27841;-75
2021/12/17 10:32:18;;;;;;;6.90;5.65;;;6.50;99.90;;;;;;488820;243;27410;-75
2021/12/17 10:34:19;;;;;;;6.18;5.55;;;6.50;99.90;;;;;;489017;243;27417;-75
2021/12/17 10:36:20;;;;;;;5.55;4.80;;;6.60;99.90;;;;;;489023;243;27787;-75
2021/12/17 10:38:23;;;;;;;4.97;4.47;;;6.50;99.90;;;;;;489014;243;27518;-76
2021/12/17 10:40:23;;;;;;;5.05;4.45;;;6.40;99.90;;;;;;488920;243;27425;-75
2021/12/17 10:42:26;;;;;;;5.07;4.57;;;6.40;99.90;;;;;;489013;243;27906;-75
2021/12/17 10:44:27;;;;;;;5.03;4.53;;;6.30;99.90;;;;;;488946;243;27959;-75
2021/12/17 10:46:30;;;;;;;5.45;4.37;;;6.30;99.90;;;;;;488956;243;27393;-75
2021/12/17 10:48:50;;;;;;;5.93;5.00;;;6.40;99.90;;;;;;488823;243;27442;-75
2021/12/17 10:50:38;;;;;;;4.60;4.25;;;6.30;99.90;;;;;;488097;243;27901;-75
2021/12/17 10:52:45;;;;;;;4.95;4.45;;;6.40;99.90;;;;;;489036;243;27951;-75
2021/12/17 10:54:41;;;;;;;6.65;5.80;;;6.30;99.90;;;;;;488676;243;27457;-75
2021/12/17 10:56:42;;;;;;;5.40;4.90;;;6.30;99.90;;;;;;489045;243;27511;-75
2021/12/17 10:58:43;;;;;;;5.57;5.00;;;6.20;99.90;;;;;;489038;243;27378;-76
2021/12/17 11:00:44;;;;;;;5.40;4.70;;;6.20;99.90;;;;;;489016;243;27422;-76
2021/12/17 11:02:46;;;;;;;5.05;4.55;;;6.20;99.90;;;;;;489047;243;27418;-75
2021/12/17 11:04:51;;;;;;;5.85;4.90;;;6.30;99.90;;;;;;489033;243;27867;-76
2021/12/17 11:06:48;;;;;;;5.10;4.60;;;6.40;99.90;;;;;;488758;243;27909;-75
2021/12/17 11:08:49;;;;;;;5.68;4.45;;;6.40;99.90;;;;;;489031;243;27958;-75
2021/12/17 11:11:08;;;;;;;5.85;4.87;;;6.50;99.90;;;;;;489061;243;27418;-75
2021/12/17 11:12:52;;;;;;;6.60;4.97;;;6.50;99.90;;;;;;487979;243;27524;-75
2021/12/17 11:14:53;;;;;;;5.28;4.78;;;6.50;99.90;;;;;;489078;243;27375;-75
2021/12/17 11:16:54;;;;;;;6.37;4.60;;;6.50;99.90;;;;;;489071;243;27497;-75
2021/12/17 11:18:56;;;;;;;5.70;5.03;;;6.50;99.90;;;;;;489072;243;27379;-76
2021/12/17 11:20:57;;;;;;;4.87;4.20;;;6.60;99.90;;;;;;489031;243;28053;-75
2021/12/17 11:23:03;;;;;;;5.40;4.82;;;6.60;99.90;;;;;;489052;243;27965;-76
2021/12/17 11:25:00;;;;;;;6.40;5.72;;;6.70;99.90;;;;;;488710;243;27383;-76
2021/12/17 11:27:01;;;;;;;6.80;5.30;;;6.70;99.90;;;;;;489008;243;27509;-76
2021/12/17 11:29:03;;;;;;;5.80;5.15;;;6.80;99.90;;;;;;489028;243;27559;-75
2021/12/17 11:31:03;;;;;;;7.65;6.28;;;6.80;99.90;;;;;;488969;243;27417;-76
2021/12/17 11:33:05;;;;;;;5.83;5.33;;;6.70;99.90;;;;;;489048;243;27414;-76
2021/12/17 11:35:06;;;;;;;6.30;5.37;;;6.80;99.90;;;;;;489030;243;29235;-75
2021/12/17 11:37:07;;;;;;;7.30;5.65;;;6.80;99.90;;;;;;489043;243;27904;-76
2021/12/17 11:39:08;;;;;;;5.60;4.97;;;6.70;99.90;;;;;;489039;243;27445;-75
2021/12/17 11:41:09;;;;;;;6.80;5.05;;;6.80;99.90;;;;;;489020;243;27432;-76
2021/12/17 11:43:15;;;;;;;7.70;5.50;;;6.80;99.90;;;;;;489039;243;27434;-76
2021/12/17 11:45:25;;;;;;;5.50;4.97;;;6.80;99.90;;;;;;488772;243;27526;-75
2021/12/17 11:47:25;;;;;;;6.93;4.80;;;6.80;99.90;;;;;;488966;243;27426;-75
2021/12/17 11:49:29;;;;;;;5.68;4.93;;;6.80;99.90;;;;;;489015;242;27377;-75
2021/12/17 11:51:28;;;;;;;6.05;5.07;;;6.90;99.90;;;;;;488881;243;27426;-75
2021/12/17 11:53:29;;;;;;;4.40;3.95;;;7.00;99.90;;;;;;489045;243;27513;-75
2021/12/17 11:55:30;;;;;;;5.75;4.50;;;7.00;99.90;;;;;;489059;242;27873;-75
2021/12/17 11:57:32;;;;;;;7.20;4.90;;;7.00;99.90;;;;;;489016;243;27885;-75
2021/12/17 11:59:33;;;;;;;7.62;5.70;;;7.00;99.90;;;;;;489004;243;27490;-75
2021/12/17 12:01:34;;;;;;;5.25;4.72;;;7.00;99.90;;;;;;489020;243;27414;-76
2021/12/17 12:03:35;;;;;;;7.40;5.37;;;7.00;99.90;;;;;;489051;243;27527;-75
2021/12/17 12:05:37;;;;;;;5.40;4.60;;;7.00;99.90;;;;;;489007;243;27386;-75
2021/12/17 12:07:38;;;;;;;5.10;4.57;;;7.00;99.90;;;;;;489038;243;27897;-76
2021/12/17 12:09:39;;;;;;;6.82;5.28;;;6.90;99.90;;;;;;489014;243;27866;-75
2021/12/17 12:11:40;;;;;;;6.28;5.37;;;6.90;99.90;;;;;;489024;243;27949;-75
2021/12/17 12:13:42;;;;;;;5.90;5.30;;;6.90;99.90;;;;;;489060;243;27905;-75
2021/12/17 12:15:43;;;;;;;6.53;5.47;;;6.90;99.90;;;;;;489046;243;27518;-75
2021/12/17 12:17:44;;;;;;;6.78;5.25;;;6.90;99.90;;;;;;489037;243;27432;-75
2021/12/17 12:19:45;;;;;;;7.40;5.67;;;6.90;99.90;;;;;;489046;243;27398;-75
2021/12/17 12:21:47;;;;;;;7.30;6.00;;;6.90;99.90;;;;;;489035;243;28771;-76
2021/12/17 12:23:48;;;;;;;7.70;5.30;;;6.80;99.90;;;;;;489047;243;27505;-75
2021/12/17 12:25:49;;;;;;;7.40;5.40;;;6.90;99.90;;;;;;489064;243;27948;-75
2021/12/17 12:27:50;;;;;;;6.65;5.20;;;6.80;99.90;;;;;;489044;243;28902;-75
2021/12/17 12:29:52;;;;;;;7.37;5.85;;;6.80;99.90;;;;;;489037;243;27915;-75
2021/12/17 12:31:53;;;;;;;8.25;6.20;;;6.80;99.90;;;;;;489020;243;27426;-76
2021/12/17 12:33:54;;;;;;;8.40;5.70;;;6.80;99.90;;;;;;489071;243;27489;-75
2021/12/17 12:35:56;;;;;;;7.87;5.72;;;6.80;99.90;;;;;;489064;243;27505;-75
2021/12/17 12:37:57;;;;;;;7.62;5.85;;;6.80;99.90;;;;;;488781;243;27550;-75
2021/12/17 12:39:58;;;;;;;7.00;5.57;;;6.80;99.90;;;;;;489048;243;27461;-76
2021/12/17 12:41:59;;;;;;;7.78;5.78;;;6.80;99.90;;;;;;489027;243;29231;-75
2021/12/17 12:44:01;;;;;;;6.32;5.72;;;6.80;99.90;;;;;;489017;243;29702;-75
2021/12/17 12:46:02;;;;;;;7.45;5.90;;;6.70;99.90;;;;;;489050;243;27479;-75
2021/12/17 12:48:03;;;;;;;7.75;5.75;;;6.70;99.90;;;;;;489047;243;27426;-75
2021/12/17 12:50:06;;;;;;;7.07;5.57;;;6.70;99.90;;;;;;489034;243;27470;-76
2021/12/17 12:52:06;;;;;;;6.45;5.60;;;6.80;99.90;;;;;;488904;243;27510;-75
2021/12/17 12:54:08;;;;;;;7.53;5.97;;;6.80;99.90;;;;;;489024;243;27418;-75
2021/12/17 12:56:08;;;;;;;8.68;6.28;;;6.80;99.90;;;;;;488943;243;27921;-76
2021/12/17 12:58:09;;;;;;;7.62;6.00;;;6.90;99.90;;;;;;489038;243;28003;-76
2021/12/17 13:00:11;;;;;;;7.37;6.12;;;6.80;99.90;;;;;;489019;243;27405;-75
2021/12/17 13:02:12;;;;;;;9.80;6.50;;;6.80;99.90;;;;;;489004;243;27458;-76
2021/12/17 13:04:13;;;;;;;8.95;6.45;;;6.80;99.90;;;;;;489026;243;27907;-75
2021/12/17 13:06:16;;;;;;;8.50;6.85;;;6.80;99.90;;;;;;489025;243;27397;-75
2021/12/17 13:08:16;;;;;;;8.50;6.30;;;6.80;99.90;;;;;;488940;243;27418;-75
2021/12/17 13:10:17;;;;;;;10.23;6.10;;;6.80;99.90;;;;;;489028;243;27908;-75